Airfield :











YOU CAN JOIN US ON...

 
LOGIN :

Register | Disclaimer

   EN    FR    IT 

 









Legend :    VFR   Marginal VFR   IFR   Intensive IFR   Very Intensive IFR
Visi :
Ceiling :
>= 8 km
>= 3000ft
5 to 8 km
1000 to 3000 ft
1500m to 5 km
500 to 1000 ft
800 to 1500m
200 to 500 ft
< 800m
< 200 ft
Symbols :   Thunderstorms  Fog  Heavy snow  Heavy precipitations  Wind > 20 kt






- Airport Elevation : 5236 ft
- IATA code : VAS


LTAR - Sivas

CURRENT METAR :
  • 200850Z 29009KT 1400 R01/P1500D R19/P1500D -SN BR BKN003 BKN030 OVC080 M05/M06 Q1020 RESN

EXPIRED METARs :
  • 200834Z 29009KT 1400 R01/P1500U R19/P1500U -SN BR BKN003 BKN030 OVC080 M05/M06 Q1020
  • 200819Z 29008KT 1100 R01/P1500U R19/P1500D -SN BR VV001 M05/M06 Q1020
  • 200750Z 29008KT 1100 R01/P1500D R19/P1500N SN BR BKN002 BKN030 OVC080 M05/M06 Q1020
  • 200650Z 26008KT 1100 R01/P1500D R19/P1500N -SN BR BKN002 BKN030 OVC080 M06/M06 Q1020
  • 200550Z 28009KT 1300 R01/P1500N R19/P1500D -SN BR BKN002 BKN030 OVC080 M06/M06 Q1019

TAF TAF LTAR
Valid from the 20 at 09:00 until the 20 at 18:00 UTC


200740Z 2009/2018 31008KT 2000 -SN BR SCT003 BKN020 BKN060
TEMPO 2009/2013 0700 SN FZFG VV003
BECMG 2014/2017 4000



MET'MAP, your aeronautical weather chart ! - Copyright ORBIFLY December 2007 - Disclaimer

ORBIFLY MET'MAP TEAM :

Programming & Development : Alexandra Zaïnal
Concept & original design : Baudouin d'Aumeries
Assistance for programming : Marc-Olivier Méhu
Technical & hardware support : Manuel Goepfert

Contact : metmap@orbifly.com




SOURCES & CREDITS :

   NOAA       Earth
Advisory